createdAt,value
2018-12-04T10:29:26.358Z,1012.90
2018-12-04T10:30:26.313Z,1012.94
2018-12-04T10:31:27.306Z,1012.86
2018-12-04T10:32:26.287Z,1012.89
2018-12-04T10:33:26.262Z,1012.95
2018-12-04T10:34:26.409Z,1012.95
2018-12-04T10:35:26.269Z,1013.02
2018-12-04T10:36:29.286Z,1013.07
2018-12-04T10:37:26.398Z,1012.98
2018-12-04T10:38:26.344Z,1012.99
2018-12-04T10:39:26.195Z,1013.00
2018-12-04T10:40:26.201Z,1013.01
2018-12-04T10:41:26.374Z,1013.04
2018-12-04T10:42:47.157Z,1013.06
2018-12-04T10:43:26.131Z,1013.07
2018-12-04T10:51:58.573Z,1013.26
2018-12-04T10:54:08.364Z,1013.30
2018-12-04T10:55:55.720Z,1013.26
2018-12-04T10:56:55.843Z,1013.31
2018-12-04T11:05:45.070Z,1013.59
2018-12-04T11:06:45.061Z,1013.50
2018-12-04T11:07:48.187Z,1013.56
2018-12-04T11:08:45.011Z,1013.83
2018-12-04T13:58:18.938Z,1016.29
2018-12-04T13:59:18.937Z,1016.28
2018-12-04T14:00:19.057Z,1016.37
2018-12-04T14:01:18.889Z,1016.40
2018-12-04T14:02:19.055Z,1016.34
2018-12-04T14:03:19.025Z,1016.40
2018-12-04T14:04:19.526Z,1016.32
2018-12-04T14:05:19.014Z,1016.34
2018-12-04T14:06:18.987Z,1016.43
2018-12-04T14:07:18.962Z,1016.46
2018-12-04T14:08:18.961Z,1016.43
2018-12-04T14:09:18.955Z,1016.45
2018-12-04T14:10:19.528Z,1016.42
2018-12-04T14:11:18.937Z,1016.45
2018-12-04T14:12:18.901Z,1016.45
2018-12-04T14:13:18.774Z,1016.47
2018-12-04T14:14:18.902Z,1016.48
2018-12-04T14:15:18.883Z,1016.48
2018-12-04T14:16:18.944Z,1016.54
2018-12-04T14:17:18.876Z,1016.52
2018-12-04T14:18:18.885Z,1016.54
2018-12-04T14:19:18.862Z,1016.56
2018-12-04T14:20:18.907Z,1016.56
2018-12-04T14:21:18.851Z,1016.54
2018-12-04T14:22:18.899Z,1016.58
2018-12-04T14:23:18.762Z,1016.60
2018-12-04T14:24:18.773Z,1016.65
2018-12-04T14:25:18.786Z,1016.65
2018-12-04T14:26:18.733Z,1016.66
2018-12-04T14:27:18.589Z,1016.66
2018-12-04T14:28:18.626Z,1016.72
2018-12-04T14:29:18.774Z,1016.70
2018-12-04T14:30:18.699Z,1016.66
2018-12-04T14:31:18.760Z,1016.69
2018-12-04T14:32:18.681Z,1016.73
2018-12-04T14:33:18.699Z,1016.78
2018-12-04T14:34:18.681Z,1016.76
2018-12-04T14:35:19.644Z,1016.80
2018-12-04T14:36:18.648Z,1016.81
2018-12-04T14:37:18.659Z,1016.81
2018-12-04T14:38:18.606Z,1016.85
2018-12-04T14:39:18.484Z,1016.87
2018-12-04T14:40:18.775Z,1016.83
2018-12-04T14:41:18.595Z,1016.85
2018-12-04T14:42:18.544Z,1016.87
2018-12-04T14:43:18.545Z,1016.94
2018-12-04T14:44:18.392Z,1016.89
2018-12-04T14:45:18.525Z,1016.92
